createdAt,value
2023-05-06T00:02:17.569Z,4.77
2023-05-06T00:04:45.610Z,5.43
2023-05-06T00:07:13.506Z,5.37
2023-05-06T00:09:43.419Z,5.20
2023-05-06T00:12:11.403Z,5.00
2023-05-06T00:14:39.374Z,5.00
2023-05-06T00:17:07.269Z,4.67
2023-05-06T00:19:35.135Z,4.50
2023-05-06T00:22:03.369Z,5.90
2023-05-06T00:24:31.325Z,8.57
2023-05-06T00:27:02.278Z,7.73
2023-05-06T00:29:30.212Z,5.97
2023-05-06T00:31:58.651Z,8.37
2023-05-06T00:34:26.590Z,8.37
2023-05-06T00:36:54.982Z,10.07
2023-05-06T00:39:23.254Z,9.60
2023-05-06T00:41:51.317Z,8.20
2023-05-06T00:44:20.680Z,8.73
2023-05-06T00:46:48.716Z,9.53
2023-05-06T00:49:16.587Z,9.40
2023-05-06T00:51:44.515Z,9.37
2023-05-06T00:54:12.303Z,8.93
2023-05-06T00:56:40.224Z,8.50
2023-05-06T00:59:08.182Z,10.10
2023-05-06T01:01:37.577Z,11.00
2023-05-06T01:04:08.303Z,10.27
2023-05-06T01:06:38.774Z,10.93
2023-05-06T01:09:11.465Z,10.20
2023-05-06T01:11:42.418Z,9.80
2023-05-06T01:14:15.069Z,10.43
2023-05-06T01:16:44.509Z,9.23
2023-05-06T01:19:14.266Z,10.83
2023-05-06T01:21:42.279Z,11.33
2023-05-06T01:24:12.100Z,10.50
2023-05-06T01:26:42.474Z,10.40
2023-05-06T01:29:10.761Z,9.90
2023-05-06T01:31:42.927Z,10.87
2023-05-06T01:34:16.470Z,8.90
2023-05-06T01:36:49.512Z,10.93
2023-05-06T01:39:19.314Z,10.70
2023-05-06T01:41:49.042Z,9.53
2023-05-06T01:44:17.324Z,10.60
2023-05-06T01:46:45.833Z,10.00
2023-05-06T01:49:13.919Z,9.83
2023-05-06T01:51:41.776Z,9.97
2023-05-06T01:54:09.813Z,9.30
2023-05-06T01:56:39.216Z,9.27
2023-05-06T01:59:07.828Z,9.00
2023-05-06T02:01:35.727Z,9.30
2023-05-06T02:04:04.249Z,9.07
2023-05-06T02:06:32.351Z,9.13
2023-05-06T02:09:00.621Z,8.77
2023-05-06T02:11:28.833Z,8.43
2023-05-06T02:13:58.319Z,9.07
2023-05-06T02:16:29.238Z,8.13
2023-05-06T02:18:57.254Z,8.13
2023-05-06T02:21:25.565Z,9.07
2023-05-06T02:23:54.046Z,7.57
2023-05-06T02:26:21.959Z,7.53
2023-05-06T02:28:49.950Z,8.43
2023-05-06T02:31:19.531Z,7.80
2023-05-06T02:33:47.433Z,7.70
2023-05-06T02:36:15.410Z,8.57
2023-05-06T02:38:43.644Z,7.70
2023-05-06T02:41:11.728Z,7.90
2023-05-06T02:43:39.726Z,8.03
2023-05-06T02:46:07.742Z,7.93
2023-05-06T02:48:37.096Z,7.70
2023-05-06T02:51:05.387Z,7.53
2023-05-06T02:53:33.279Z,7.90
2023-05-06T02:56:01.752Z,7.20
2023-05-06T02:58:29.637Z,7.77
2023-05-06T03:00:57.930Z,7.37
2023-05-06T03:03:25.881Z,7.63
2023-05-06T03:05:55.248Z,7.20
2023-05-06T03:08:23.214Z,6.87
2023-05-06T03:10:51.442Z,7.30
2023-05-06T03:13:19.425Z,7.00
2023-05-06T03:15:53.094Z,7.80
2023-05-06T03:18:21.555Z,7.20
2023-05-06T03:20:49.621Z,7.50
2023-05-06T03:23:18.956Z,6.83
2023-05-06T03:25:47.265Z,7.07
2023-05-06T03:28:15.096Z,6.90
2023-05-06T03:30:43.115Z,6.60
2023-05-06T03:33:10.954Z,6.60
2023-05-06T03:35:38.821Z,6.33
2023-05-06T03:38:06.819Z,6.97
2023-05-06T03:40:36.294Z,7.33
2023-05-06T03:43:04.209Z,6.57
2023-05-06T03:45:32.553Z,6.93
2023-05-06T03:48:00.503Z,6.47
2023-05-06T03:50:28.505Z,6.80
2023-05-06T03:52:56.896Z,6.50
2023-05-06T03:55:24.830Z,6.57
2023-05-06T03:57:54.488Z,6.50
2023-05-06T04:00:22.583Z,6.27
2023-05-06T04:02:50.959Z,7.23
2023-05-06T04:05:19.090Z,6.50
2023-05-06T04:07:47.379Z,6.07
2023-05-06T04:10:15.822Z,6.20
2023-05-06T04:12:43.755Z,6.17
2023-05-06T04:15:13.756Z,6.20
2023-05-06T04:17:41.649Z,6.33
2023-05-06T04:20:12.253Z,6.50
2023-05-06T04:22:40.213Z,5.80
2023-05-06T04:25:09.614Z,5.87
2023-05-06T04:27:37.776Z,5.70
2023-05-06T04:30:06.515Z,6.50
2023-05-06T04:32:36.564Z,5.80
2023-05-06T04:35:05.348Z,5.70
2023-05-06T04:37:33.425Z,5.37
2023-05-06T04:40:03.314Z,6.37
2023-05-06T04:42:32.143Z,5.70
2023-05-06T04:45:00.609Z,5.93
2023-05-06T04:47:28.534Z,5.70
2023-05-06T04:49:58.016Z,5.97
2023-05-06T04:52:26.179Z,5.20
2023-05-06T04:54:54.495Z,5.30
2023-05-06T04:57:22.384Z,6.07
2023-05-06T04:59:50.661Z,6.20
2023-05-06T05:02:18.721Z,5.40
2023-05-06T05:04:46.982Z,5.53
2023-05-06T05:07:16.242Z,5.60
2023-05-06T05:09:44.528Z,5.50
2023-05-06T05:12:12.914Z,5.13
2023-05-06T05:14:40.811Z,4.73
2023-05-06T05:17:09.388Z,4.90
2023-05-06T05:19:37.447Z,5.30
2023-05-06T05:22:05.524Z,4.90
2023-05-06T05:24:34.920Z,5.13
2023-05-06T05:27:02.820Z,5.33
2023-05-06T05:29:30.953Z,5.33
2023-05-06T05:31:59.383Z,4.90
2023-05-06T05:34:27.410Z,5.50
2023-05-06T05:36:55.918Z,4.77
2023-05-06T05:39:24.307Z,4.93
2023-05-06T05:41:53.653Z,4.70
2023-05-06T05:44:21.975Z,5.17
2023-05-06T05:46:51.464Z,4.97
2023-05-06T05:49:19.558Z,5.07
2023-05-06T05:51:48.055Z,4.90
2023-05-06T05:54:16.954Z,4.57
2023-05-06T05:56:44.966Z,4.90
2023-05-06T05:59:14.703Z,5.10
2023-05-06T06:01:43.022Z,4.80
2023-05-06T06:04:11.013Z,4.73
2023-05-06T06:06:39.404Z,5.03
2023-05-06T06:09:07.717Z,5.30
2023-05-06T06:11:35.619Z,4.90
2023-05-06T06:14:03.460Z,4.83
2023-05-06T06:16:33.356Z,4.20
2023-05-06T06:19:01.249Z,5.07
2023-05-06T06:21:29.317Z,4.67
2023-05-06T06:23:57.175Z,4.60
2023-05-06T06:26:25.477Z,4.20
2023-05-06T06:28:53.322Z,4.30
2023-05-06T06:31:21.803Z,4.50
2023-05-06T06:33:51.143Z,4.60
2023-05-06T06:36:19.485Z,4.90
2023-05-06T06:38:47.336Z,4.30
2023-05-06T06:41:15.456Z,4.53
2023-05-06T06:43:43.654Z,4.50
2023-05-06T06:46:11.567Z,4.83
2023-05-06T06:48:39.940Z,4.53
2023-05-06T06:51:09.263Z,4.47
2023-05-06T06:53:37.236Z,4.30
2023-05-06T06:56:05.185Z,5.33
2023-05-06T06:58:34.523Z,5.20
2023-05-06T07:01:02.468Z,4.80
2023-05-06T07:03:30.848Z,4.63
2023-05-06T07:05:58.706Z,5.07
2023-05-06T07:08:28.510Z,4.90
2023-05-06T07:10:56.679Z,4.57
2023-05-06T07:13:25.102Z,4.83
2023-05-06T07:15:52.929Z,4.73
2023-05-06T07:18:21.474Z,5.27
2023-05-06T07:20:49.338Z,4.53
2023-05-06T07:23:17.596Z,5.20
2023-05-06T07:25:47.361Z,4.67
2023-05-06T07:28:15.675Z,4.60
2023-05-06T07:30:43.712Z,4.43
2023-05-06T07:33:11.700Z,4.50
2023-05-06T07:35:39.970Z,4.03
2023-05-06T07:38:07.813Z,4.50
2023-05-06T07:40:35.789Z,4.50
2023-05-06T07:43:05.675Z,4.03
2023-05-06T07:45:33.531Z,4.23
2023-05-06T07:48:02.047Z,4.13
2023-05-06T07:50:30.039Z,4.73
2023-05-06T07:52:58.466Z,4.20
2023-05-06T07:55:26.437Z,4.13
2023-05-06T07:57:54.762Z,4.80
2023-05-06T08:00:24.356Z,4.43
2023-05-06T08:02:52.536Z,4.30
2023-05-06T08:05:20.459Z,4.63
2023-05-06T08:07:50.172Z,4.67
2023-05-06T08:10:19.110Z,4.70
2023-05-06T08:12:47.051Z,4.63
2023-05-06T08:15:15.412Z,4.17
2023-05-06T08:17:44.857Z,3.90
2023-05-06T08:20:14.244Z,4.63
2023-05-06T08:22:42.726Z,4.83
2023-05-06T08:25:11.574Z,4.63
2023-05-06T08:27:39.717Z,4.87
2023-05-06T08:30:08.919Z,4.80
2023-05-06T08:32:36.848Z,4.53
2023-05-06T08:35:07.348Z,4.73
2023-05-06T08:37:35.312Z,4.73
2023-05-06T08:40:03.226Z,4.47
2023-05-06T08:42:31.429Z,4.53
2023-05-06T08:44:59.335Z,4.67
2023-05-06T08:47:27.317Z,5.07
2023-05-06T08:49:56.405Z,4.63
2023-05-06T08:52:26.293Z,4.63
2023-05-06T08:54:54.631Z,5.20
2023-05-06T08:57:22.800Z,4.73
2023-05-06T08:59:51.554Z,4.80
2023-05-06T09:02:20.073Z,4.60
2023-05-06T09:04:47.932Z,4.90
2023-05-06T09:07:15.884Z,5.33
2023-05-06T09:09:45.686Z,5.10
2023-05-06T09:12:13.676Z,4.73
2023-05-06T09:14:41.621Z,4.87
2023-05-06T09:17:23.625Z,4.80
2023-05-06T09:19:53.224Z,4.87
2023-05-06T09:22:22.641Z,4.53
2023-05-06T09:24:56.915Z,5.00
2023-05-06T09:27:25.891Z,4.30
2023-05-06T09:30:04.138Z,5.00
2023-05-06T09:32:32.684Z,4.50
2023-05-06T09:35:00.727Z,5.10
2023-05-06T09:37:28.864Z,4.20
2023-05-06T09:39:59.200Z,5.00
2023-05-06T09:42:27.858Z,4.77
2023-05-06T09:44:57.078Z,4.33
2023-05-06T09:47:26.679Z,4.97
2023-05-06T09:49:57.975Z,4.60
2023-05-06T09:52:25.824Z,4.90
2023-05-06T09:54:54.186Z,4.83
2023-05-06T09:57:24.881Z,5.03
2023-05-06T09:59:53.314Z,5.40
2023-05-06T10:02:21.891Z,5.90
2023-05-06T10:04:50.758Z,5.60
2023-05-06T10:07:22.814Z,6.00
2023-05-06T10:09:52.374Z,5.97
2023-05-06T10:12:20.397Z,6.33
2023-05-06T10:14:49.932Z,5.83
2023-05-06T10:17:18.334Z,6.33
2023-05-06T10:19:47.055Z,6.57
2023-05-06T10:22:19.366Z,6.90
2023-05-06T10:24:49.788Z,8.07
2023-05-06T10:27:19.322Z,8.60
2023-05-06T10:29:47.346Z,8.77
2023-05-06T10:32:17.048Z,8.77
2023-05-06T10:34:52.820Z,9.10
2023-05-06T10:37:21.121Z,9.70
2023-05-06T10:39:49.196Z,8.90
2023-05-06T10:42:18.283Z,9.87
2023-05-06T10:45:08.580Z,9.60
2023-05-06T10:48:11.586Z,10.10
2023-05-06T10:50:39.853Z,9.90
2023-05-06T10:53:07.933Z,9.57
2023-05-06T10:55:36.534Z,10.50
2023-05-06T10:58:05.067Z,11.30
2023-05-06T11:00:33.904Z,10.50
2023-05-06T11:03:06.518Z,10.97
2023-05-06T11:05:47.643Z,10.97
2023-05-06T11:08:15.473Z,11.50
2023-05-06T11:10:43.938Z,10.93
2023-05-06T11:13:22.805Z,11.33
2023-05-06T11:15:52.451Z,11.30
2023-05-06T11:18:42.831Z,12.20
2023-05-06T11:21:41.169Z,11.50
2023-05-06T11:24:10.692Z,11.90
2023-05-06T11:26:38.665Z,12.20
2023-05-06T11:29:07.234Z,12.40
2023-05-06T11:31:42.916Z,12.40
2023-05-06T11:34:15.025Z,12.43
2023-05-06T11:37:03.332Z,11.73
2023-05-06T11:39:34.886Z,13.23
2023-05-06T11:42:08.221Z,12.30
2023-05-06T11:44:37.023Z,12.97
2023-05-06T11:47:06.348Z,11.97
2023-05-06T11:49:38.393Z,12.40
2023-05-06T11:52:09.296Z,12.47
2023-05-06T11:54:38.135Z,12.40
2023-05-06T11:57:06.099Z,13.10
2023-05-06T11:59:35.017Z,14.03
2023-05-06T12:02:03.945Z,13.93
2023-05-06T12:04:39.188Z,14.20
2023-05-06T12:07:08.767Z,12.17
2023-05-06T12:09:37.392Z,13.27
2023-05-06T12:12:06.039Z,13.13
2023-05-06T12:14:34.428Z,13.40
2023-05-06T12:17:04.660Z,13.50
2023-05-06T12:19:33.630Z,13.37
2023-05-06T12:22:59.773Z,17.90
2023-05-06T12:25:31.657Z,11.33
2023-05-06T12:27:59.760Z,9.10
2023-05-06T12:30:33.326Z,8.90
2023-05-06T12:33:02.295Z,7.37
2023-05-06T12:35:35.593Z,7.60
2023-05-06T12:38:15.498Z,8.60
2023-05-06T12:40:44.777Z,7.90
2023-05-06T12:43:18.620Z,8.57
2023-05-06T12:46:03.574Z,8.17
2023-05-06T12:48:31.852Z,7.90
2023-05-06T12:51:02.519Z,8.50
2023-05-06T12:53:35.688Z,7.87
2023-05-06T12:56:03.974Z,8.90
2023-05-06T12:58:37.405Z,10.60
2023-05-06T13:01:05.791Z,9.00
2023-05-06T13:03:43.194Z,7.53
2023-05-06T13:06:37.641Z,6.53
2023-05-06T13:09:07.723Z,7.07
2023-05-06T13:11:48.401Z,7.23
2023-05-06T13:14:26.457Z,6.80
2023-05-06T13:17:33.941Z,6.93
2023-05-06T13:20:07.538Z,7.70
2023-05-06T13:22:50.666Z,7.40
2023-05-06T13:25:23.926Z,6.70
2023-05-06T13:31:26.317Z,6.33
2023-05-06T13:33:54.658Z,5.60
2023-05-06T13:36:26.453Z,7.23
2023-05-06T13:38:55.153Z,6.70
2023-05-06T13:41:25.578Z,6.30
2023-05-06T13:43:54.040Z,15.20
2023-05-06T13:46:23.400Z,7.70
2023-05-06T13:48:59.276Z,10.40
2023-05-06T13:51:33.629Z,7.40
2023-05-06T13:54:01.923Z,6.23
2023-05-06T13:56:31.818Z,6.10
2023-05-06T13:59:02.638Z,9.10
2023-05-06T14:01:34.048Z,5.50
2023-05-06T14:04:02.130Z,6.70
2023-05-06T14:06:30.497Z,5.47
2023-05-06T14:08:58.479Z,5.80
2023-05-06T14:11:27.158Z,5.90
2023-05-06T14:13:56.992Z,6.53
2023-05-06T14:16:25.184Z,5.27
2023-05-06T14:18:53.597Z,5.00
2023-05-06T14:21:27.166Z,4.97
2023-05-06T14:23:55.907Z,5.27
2023-05-06T14:26:34.284Z,4.83
2023-05-06T14:29:04.394Z,5.53
2023-05-06T14:32:28.546Z,5.60
2023-05-06T14:35:26.706Z,5.40
2023-05-06T14:37:55.264Z,5.33
2023-05-06T14:40:24.264Z,5.30
2023-05-06T14:42:55.261Z,4.63
2023-05-06T14:48:29.310Z,5.13
2023-05-06T14:51:11.998Z,28.17
2023-05-06T14:53:47.056Z,8.67
2023-05-06T14:56:46.072Z,6.63
2023-05-06T14:59:36.482Z,6.57
2023-05-06T15:02:19.638Z,6.30
2023-05-06T15:05:06.005Z,5.97
2023-05-06T15:07:34.242Z,5.80
2023-05-06T15:10:55.048Z,7.77
2023-05-06T15:13:23.346Z,9.13
2023-05-06T15:15:51.574Z,7.23
2023-05-06T15:18:22.710Z,6.33
2023-05-06T15:20:51.058Z,6.43
2023-05-06T15:23:20.731Z,5.90
2023-05-06T15:25:48.869Z,5.90
2023-05-06T15:28:17.037Z,5.13
2023-05-06T15:30:45.109Z,5.00
2023-05-06T15:33:13.194Z,5.67
2023-05-06T15:35:42.624Z,5.20
2023-05-06T15:38:21.167Z,5.10
2023-05-06T15:40:51.287Z,5.50
2023-05-06T15:43:23.662Z,4.53
2023-05-06T15:45:53.053Z,4.40
2023-05-06T15:48:21.054Z,5.13
2023-05-06T15:50:50.749Z,4.60
2023-05-06T15:53:20.299Z,5.10
2023-05-06T15:55:56.763Z,5.20
2023-05-06T15:58:32.686Z,5.63
2023-05-06T16:01:03.457Z,5.50
2023-05-06T16:03:34.748Z,5.50
2023-05-06T16:06:04.385Z,5.10
2023-05-06T16:08:32.472Z,5.73
2023-05-06T16:11:00.974Z,4.87
2023-05-06T16:13:28.883Z,5.00
2023-05-06T16:15:57.214Z,5.20
2023-05-06T16:18:49.439Z,5.93
2023-05-06T16:21:19.038Z,5.60
2023-05-06T16:23:47.238Z,5.67
2023-05-06T16:26:38.195Z,5.87
2023-05-06T16:29:06.512Z,21.83
2023-05-06T16:31:44.750Z,7.50
2023-05-06T16:34:15.722Z,7.83
2023-05-06T16:37:47.884Z,6.90
2023-05-06T16:40:08.419Z,6.90
2023-05-06T16:42:36.603Z,6.47
2023-05-06T16:45:04.983Z,7.00
2023-05-06T16:47:33.684Z,6.47
2023-05-06T16:50:02.641Z,5.93
2023-05-06T16:52:32.038Z,6.30
2023-05-06T16:55:00.423Z,6.90
2023-05-06T16:57:28.425Z,6.40
2023-05-06T16:59:56.362Z,6.60
2023-05-06T17:02:24.248Z,6.80
2023-05-06T17:04:52.270Z,7.30
2023-05-06T17:07:21.058Z,6.70
2023-05-06T17:09:50.396Z,7.13
2023-05-06T17:12:20.622Z,7.20
2023-05-06T17:14:48.743Z,7.60
2023-05-06T17:17:16.676Z,7.60
2023-05-06T17:19:45.120Z,7.57
2023-05-06T17:22:13.112Z,5.73
2023-05-06T17:24:41.328Z,4.90
2023-05-06T17:27:10.875Z,4.40
2023-05-06T17:29:38.943Z,3.80
2023-05-06T17:32:07.404Z,4.50
2023-05-06T17:34:35.684Z,4.17
2023-05-06T17:37:04.519Z,3.90
2023-05-06T17:39:34.051Z,4.53
2023-05-06T17:42:02.937Z,3.93
2023-05-06T17:44:33.207Z,3.90
2023-05-06T17:47:01.414Z,4.30
2023-05-06T17:49:30.006Z,3.93
2023-05-06T17:51:59.576Z,4.17
2023-05-06T17:54:32.276Z,4.00
2023-05-06T17:57:00.962Z,3.70
2023-05-06T17:59:29.811Z,3.80
2023-05-06T18:02:00.397Z,3.70
2023-05-06T18:04:28.527Z,3.53
2023-05-06T18:06:57.055Z,4.17
2023-05-06T18:09:25.344Z,4.20
2023-05-06T18:11:53.150Z,4.17
2023-05-06T18:14:21.429Z,3.87
2023-05-06T18:16:49.204Z,4.47
2023-05-06T18:19:18.416Z,3.60
2023-05-06T18:21:47.100Z,3.20
2023-05-06T18:24:16.831Z,3.90
2023-05-06T18:26:46.267Z,3.90
2023-05-06T18:29:14.711Z,4.00
2023-05-06T18:31:43.722Z,3.60
2023-05-06T18:34:11.767Z,3.20
2023-05-06T18:36:44.666Z,3.70
2023-05-06T18:39:12.674Z,4.07
2023-05-06T18:41:41.806Z,4.00
2023-05-06T18:44:09.957Z,4.93
2023-05-06T18:46:37.819Z,5.47
2023-05-06T18:49:06.296Z,4.43
2023-05-06T18:51:34.137Z,4.97
2023-05-06T18:54:03.486Z,4.30
2023-05-06T18:56:31.692Z,4.17
2023-05-06T18:58:59.691Z,4.93
2023-05-06T19:01:27.909Z,4.10
2023-05-06T19:03:56.895Z,4.07
2023-05-06T19:06:24.776Z,4.23
2023-05-06T19:08:53.665Z,4.37
2023-05-06T19:11:23.254Z,4.20
2023-05-06T19:13:51.984Z,4.00
2023-05-06T19:16:20.005Z,4.30
2023-05-06T19:18:48.228Z,4.00
2023-05-06T19:21:16.359Z,4.33
2023-05-06T19:23:44.647Z,3.90
2023-05-06T19:26:12.637Z,4.00
2023-05-06T19:28:42.063Z,4.23
2023-05-06T19:31:10.618Z,4.17
2023-05-06T19:33:38.841Z,4.87
2023-05-06T19:36:07.757Z,4.43
2023-05-06T19:38:35.878Z,3.70
2023-05-06T19:41:04.265Z,4.50
2023-05-06T19:43:32.604Z,4.20
2023-05-06T19:46:02.207Z,4.50
2023-05-06T19:48:30.514Z,4.77
2023-05-06T19:50:58.581Z,4.27
2023-05-06T19:53:26.698Z,4.20
2023-05-06T19:55:55.452Z,3.97
2023-05-06T19:58:24.055Z,4.70
2023-05-06T20:00:52.115Z,4.37
2023-05-06T20:03:21.816Z,3.97
2023-05-06T20:05:50.113Z,4.47
2023-05-06T20:08:18.671Z,4.17
2023-05-06T20:10:47.039Z,4.00
2023-05-06T20:13:15.150Z,4.20
2023-05-06T20:15:43.316Z,4.10
2023-05-06T20:18:11.445Z,4.20
2023-05-06T20:20:41.616Z,4.27
2023-05-06T20:23:09.629Z,3.90
2023-05-06T20:25:37.932Z,4.27
2023-05-06T20:28:06.497Z,4.23
2023-05-06T20:30:34.601Z,4.23
2023-05-06T20:33:02.650Z,4.70
2023-05-06T20:35:31.737Z,3.53
2023-05-06T20:38:02.009Z,4.00
2023-05-06T20:40:30.483Z,3.80
2023-05-06T20:42:58.552Z,4.30
2023-05-06T20:45:27.780Z,4.23
2023-05-06T20:47:55.818Z,4.53
2023-05-06T20:50:24.549Z,3.77
2023-05-06T20:52:52.988Z,3.93
2023-05-06T20:55:23.536Z,4.30
2023-05-06T20:57:51.515Z,4.00
2023-05-06T21:00:20.036Z,4.67
2023-05-06T21:02:48.131Z,3.80
2023-05-06T21:05:16.834Z,4.13
2023-05-06T21:07:44.711Z,3.63
2023-05-06T21:10:12.729Z,3.90
2023-05-06T21:12:47.802Z,4.50
2023-05-06T21:15:16.155Z,4.80
2023-05-06T21:17:44.176Z,4.00
2023-05-06T21:20:13.266Z,3.93
2023-05-06T21:22:41.089Z,3.90
2023-05-06T21:25:10.446Z,3.97
2023-05-06T21:27:38.761Z,3.90
2023-05-06T21:30:10.329Z,4.03
2023-05-06T21:32:38.164Z,3.73
2023-05-06T21:35:06.846Z,4.10
2023-05-06T21:37:35.576Z,4.03
2023-05-06T21:40:04.385Z,4.07
2023-05-06T21:42:32.111Z,4.33
2023-05-06T21:45:00.271Z,3.40
2023-05-06T21:47:29.563Z,4.13
2023-05-06T21:49:57.935Z,4.03
2023-05-06T21:52:25.939Z,3.60
2023-05-06T21:54:54.827Z,4.30
2023-05-06T21:57:22.856Z,4.00
2023-05-06T21:59:52.063Z,4.20
2023-05-06T22:02:20.088Z,3.70
2023-05-06T22:04:49.714Z,4.03
2023-05-06T22:07:17.722Z,4.03
2023-05-06T22:09:45.646Z,3.90
2023-05-06T22:12:15.487Z,4.03
2023-05-06T22:14:43.868Z,4.10
2023-05-06T22:17:12.352Z,4.00
2023-05-06T22:19:41.841Z,4.23
2023-05-06T22:22:11.641Z,4.30
2023-05-06T22:24:40.133Z,4.00
2023-05-06T22:27:08.010Z,4.23
2023-05-06T22:29:36.091Z,4.30
2023-05-06T22:32:04.184Z,4.07
2023-05-06T22:34:32.128Z,3.77
2023-05-06T22:37:01.806Z,4.20
2023-05-06T22:39:31.726Z,4.20
2023-05-06T22:41:59.839Z,3.93
2023-05-06T22:44:29.882Z,4.00
2023-05-06T22:46:57.878Z,4.30
2023-05-06T22:49:29.539Z,3.73
2023-05-06T22:51:57.499Z,4.20
2023-05-06T22:54:25.613Z,3.93
2023-05-06T22:56:55.174Z,4.33
2023-05-06T22:59:23.252Z,4.13
2023-05-06T23:01:51.360Z,10.10
2023-05-06T23:04:19.406Z,11.03
2023-05-06T23:06:47.908Z,12.63
2023-05-06T23:09:16.421Z,13.07
2023-05-06T23:11:44.413Z,12.60
2023-05-06T23:14:13.912Z,12.63
2023-05-06T23:16:41.687Z,13.80
2023-05-06T23:19:09.478Z,13.50
2023-05-06T23:21:37.404Z,12.70
2023-05-06T23:24:06.089Z,13.17
2023-05-06T23:26:34.145Z,12.20
2023-05-06T23:29:02.473Z,13.53
2023-05-06T23:31:32.041Z,14.37
2023-05-06T23:34:00.120Z,13.63
2023-05-06T23:36:28.418Z,12.60
2023-05-06T23:38:56.489Z,13.70
2023-05-06T23:41:24.642Z,13.87
2023-05-06T23:43:52.651Z,14.93
2023-05-06T23:46:20.980Z,14.30
2023-05-06T23:48:50.383Z,14.73
2023-05-06T23:51:18.221Z,15.73
2023-05-06T23:53:46.086Z,13.63
2023-05-06T23:56:13.889Z,15.30
2023-05-06T23:58:41.723Z,16.10
